createdAt,value
2019-05-23T00:01:12.900Z,99.90
2019-05-23T00:03:44.699Z,99.90
2019-05-23T00:06:17.686Z,99.90
2019-05-23T00:08:47.438Z,99.90
2019-05-23T00:11:35.100Z,99.90
2019-05-23T00:14:07.642Z,99.90
2019-05-23T00:16:38.082Z,99.90
2019-05-23T00:19:06.853Z,99.90
2019-05-23T00:21:37.422Z,99.90
2019-05-23T00:24:06.442Z,99.90
2019-05-23T00:26:35.940Z,99.90
2019-05-23T00:29:10.673Z,99.90
2019-05-23T00:31:38.586Z,99.90
2019-05-23T00:34:09.617Z,99.90
2019-05-23T00:36:38.505Z,99.90
2019-05-23T00:39:09.120Z,99.90
2019-05-23T00:41:39.932Z,99.90
2019-05-23T00:44:10.280Z,99.90
2019-05-23T00:46:39.663Z,99.90
2019-05-23T00:49:08.352Z,99.90
2019-05-23T00:51:37.026Z,99.90
2019-05-23T00:54:06.888Z,99.90
2019-05-23T00:56:37.261Z,99.90
2019-05-23T00:59:06.972Z,99.90
2019-05-23T01:01:37.904Z,99.90
2019-05-23T01:04:07.199Z,99.90
2019-05-23T01:06:37.441Z,99.90
2019-05-23T01:09:08.010Z,99.90
2019-05-23T01:11:38.140Z,99.90
2019-05-23T01:14:07.090Z,99.90
2019-05-23T01:16:36.001Z,99.90
2019-05-23T01:19:05.243Z,99.90
2019-05-23T01:21:52.101Z,99.90
2019-05-23T01:24:22.341Z,99.90
2019-05-23T01:26:51.730Z,99.90
2019-05-23T01:29:22.306Z,99.90
2019-05-23T01:31:52.701Z,99.90
2019-05-23T01:34:22.252Z,99.90
2019-05-23T01:36:50.134Z,99.90
2019-05-23T01:39:19.565Z,99.90
2019-05-23T01:41:47.391Z,99.90
2019-05-23T01:44:16.229Z,99.90
2019-05-23T01:46:44.961Z,99.90
2019-05-23T01:49:13.677Z,99.90
2019-05-23T01:51:43.022Z,99.90
2019-05-23T01:54:13.274Z,99.90
2019-05-23T01:56:42.689Z,99.90
2019-05-23T01:59:10.550Z,99.90
2019-05-23T02:01:39.745Z,99.90
2019-05-23T02:04:09.017Z,99.90
2019-05-23T02:06:38.460Z,99.90
2019-05-23T02:09:07.999Z,99.90
2019-05-23T02:11:37.714Z,99.90
2019-05-23T02:14:07.918Z,99.90
2019-05-23T02:16:38.029Z,99.90
2019-05-23T02:19:07.601Z,99.90
2019-05-23T02:21:37.009Z,99.90
2019-05-23T02:24:05.281Z,99.90
2019-05-23T02:26:35.782Z,99.90
2019-05-23T02:29:05.097Z,99.90
2019-05-23T02:31:33.838Z,99.90
2019-05-23T02:34:03.421Z,99.90
2019-05-23T02:36:32.448Z,99.90
2019-05-23T02:39:05.578Z,99.90
2019-05-23T02:41:36.169Z,99.90
2019-05-23T02:44:16.395Z,99.90
2019-05-23T02:46:52.907Z,99.90
2019-05-23T02:49:23.602Z,99.90
2019-05-23T02:51:55.745Z,99.90
2019-05-23T02:54:29.100Z,99.90
2019-05-23T02:57:00.373Z,99.90
2019-05-23T02:59:41.393Z,99.90
2019-05-23T03:02:37.010Z,99.90
2019-05-23T03:05:09.767Z,99.90
2019-05-23T03:07:40.248Z,99.90
2019-05-23T03:10:09.675Z,99.90
2019-05-23T03:12:38.790Z,99.90
2019-05-23T03:15:11.072Z,99.90
2019-05-23T03:17:43.055Z,99.90
2019-05-23T03:20:13.631Z,99.90
2019-05-23T03:22:54.741Z,99.90
2019-05-23T03:25:39.743Z,99.90
2019-05-23T03:28:10.127Z,99.90
2019-05-23T03:30:40.691Z,99.90
2019-05-23T03:33:14.411Z,99.90
2019-05-23T03:35:48.245Z,99.90
2019-05-23T03:38:17.032Z,99.90
2019-05-23T03:40:47.469Z,99.90
2019-05-23T03:43:16.091Z,99.90
2019-05-23T03:45:52.655Z,99.90
2019-05-23T03:48:22.018Z,99.90
2019-05-23T03:50:50.768Z,99.90
2019-05-23T03:53:21.059Z,99.90
2019-05-23T03:55:52.536Z,99.90
2019-05-23T03:58:22.951Z,99.90
2019-05-23T04:00:53.992Z,99.90
2019-05-23T04:03:24.578Z,99.90
2019-05-23T04:05:54.654Z,99.90
2019-05-23T04:08:24.629Z,99.90
2019-05-23T04:10:53.386Z,99.90
2019-05-23T04:13:23.872Z,99.90
2019-05-23T04:15:52.832Z,99.90
2019-05-23T04:18:22.137Z,99.90
2019-05-23T04:20:50.055Z,99.90
2019-05-23T04:23:19.078Z,99.90
2019-05-23T04:25:47.736Z,99.90
2019-05-23T04:28:16.627Z,99.90
2019-05-23T04:30:45.687Z,99.90
2019-05-23T04:33:14.274Z,99.90
2019-05-23T04:35:43.038Z,99.90
2019-05-23T04:38:11.703Z,99.90
2019-05-23T04:40:40.373Z,99.90
2019-05-23T04:43:09.238Z,99.90
2019-05-23T04:45:38.542Z,99.90
2019-05-23T04:48:06.795Z,99.90
2019-05-23T04:50:35.482Z,99.90
2019-05-23T04:53:04.407Z,99.90
2019-05-23T04:55:34.299Z,99.90
2019-05-23T04:58:05.012Z,99.90
2019-05-23T05:00:34.377Z,99.90
2019-05-23T05:03:05.003Z,99.90
2019-05-23T05:05:34.372Z,99.90
2019-05-23T05:08:02.366Z,99.90
2019-05-23T05:10:32.845Z,98.60
2019-05-23T05:13:02.630Z,99.40
2019-05-23T05:15:31.788Z,98.10
2019-05-23T05:18:00.689Z,95.10
2019-05-23T05:20:29.551Z,92.30
2019-05-23T05:22:58.205Z,88.90
2019-05-23T05:25:27.034Z,88.10
2019-05-23T05:27:55.601Z,78.40
2019-05-23T05:30:24.466Z,79.50
2019-05-23T05:32:53.180Z,79.10
2019-05-23T05:35:21.858Z,79.10
2019-05-23T05:37:50.492Z,77.50
2019-05-23T05:40:19.134Z,75.90
2019-05-23T05:42:48.093Z,73.90
2019-05-23T05:45:18.701Z,69.70
2019-05-23T05:47:47.654Z,65.10
2019-05-23T05:50:17.450Z,58.40
2019-05-23T05:52:46.029Z,52.90
2019-05-23T05:55:15.734Z,50.00
2019-05-23T05:57:44.376Z,45.90
2019-05-23T06:00:21.023Z,40.90
2019-05-23T06:03:03.696Z,40.40
2019-05-23T06:05:24.730Z,40.40
2019-05-23T06:07:54.165Z,43.90
2019-05-23T06:10:23.819Z,46.60
2019-05-23T06:12:52.473Z,49.40
2019-05-23T06:15:22.865Z,50.90
2019-05-23T06:17:51.848Z,51.50
2019-05-23T06:20:20.625Z,53.50
2019-05-23T06:22:49.789Z,52.90
2019-05-23T06:25:18.510Z,53.40
2019-05-23T06:27:48.193Z,53.50
2019-05-23T06:30:19.055Z,55.60
2019-05-23T06:32:48.152Z,56.60
2019-05-23T06:35:16.025Z,54.30
2019-05-23T06:37:45.369Z,54.30
2019-05-23T06:40:15.572Z,52.90
2019-05-23T06:42:44.443Z,50.80
2019-05-23T06:45:13.501Z,48.00
2019-05-23T06:47:42.327Z,42.30
2019-05-23T06:50:17.031Z,42.30
2019-05-23T06:52:45.758Z,41.60
2019-05-23T06:55:13.617Z,41.70
2019-05-23T06:57:42.289Z,41.40
2019-05-23T07:00:10.194Z,38.80
2019-05-23T07:02:41.088Z,36.60
2019-05-23T07:05:09.990Z,36.50
2019-05-23T07:07:39.708Z,34.40
2019-05-23T07:10:08.901Z,34.50
2019-05-23T07:12:37.686Z,34.30
2019-05-23T07:15:08.151Z,33.90
2019-05-23T07:17:37.313Z,36.70
2019-05-23T07:20:08.868Z,37.50
2019-05-23T07:22:37.553Z,38.50
2019-05-23T07:25:06.965Z,40.40
2019-05-23T07:27:35.791Z,41.00
2019-05-23T07:30:19.115Z,42.30
2019-05-23T07:32:47.870Z,40.30
2019-05-23T07:35:16.501Z,39.10
2019-05-23T07:37:44.287Z,36.30
2019-05-23T07:40:13.230Z,34.40
2019-05-23T07:42:42.359Z,31.90
2019-05-23T07:45:13.937Z,31.20
2019-05-23T07:47:42.850Z,29.00
2019-05-23T07:50:13.085Z,26.80
2019-05-23T07:52:42.175Z,28.80
2019-05-23T07:55:25.338Z,30.00
2019-05-23T07:57:57.029Z,27.90
2019-05-23T08:00:33.197Z,27.90
2019-05-23T08:03:04.924Z,26.20
2019-05-23T08:05:53.439Z,24.80
2019-05-23T08:08:22.113Z,26.60
2019-05-23T08:10:50.909Z,28.90
2019-05-23T08:13:19.678Z,30.40
2019-05-23T08:15:48.722Z,31.60
2019-05-23T08:18:17.537Z,32.40
2019-05-23T08:20:46.542Z,33.30
2019-05-23T08:23:16.082Z,32.10
2019-05-23T08:25:44.892Z,32.60
2019-05-23T08:28:13.709Z,38.50
2019-05-23T08:30:42.603Z,39.20
2019-05-23T08:33:12.619Z,38.40
2019-05-23T08:35:41.607Z,38.30
2019-05-23T08:38:10.800Z,37.30
2019-05-23T08:40:39.934Z,38.40
2019-05-23T08:43:08.970Z,38.10
2019-05-23T08:45:37.975Z,36.80
2019-05-23T08:48:07.841Z,36.40
2019-05-23T08:50:36.553Z,36.90
2019-05-23T08:53:04.500Z,39.20
2019-05-23T08:55:35.746Z,37.40
2019-05-23T08:58:04.810Z,37.70
2019-05-23T09:00:38.335Z,36.20
2019-05-23T09:03:07.580Z,33.30
2019-05-23T09:05:38.809Z,32.60
2019-05-23T09:08:09.114Z,32.80
2019-05-23T09:10:39.319Z,29.70
2019-05-23T09:13:08.730Z,30.10
2019-05-23T09:15:37.838Z,29.30
2019-05-23T09:18:07.585Z,28.20
2019-05-23T09:20:37.423Z,30.40
2019-05-23T09:23:06.382Z,30.80
2019-05-23T09:25:35.050Z,29.60
2019-05-23T09:28:05.647Z,28.00
2019-05-23T09:30:34.257Z,25.50
2019-05-23T09:33:03.191Z,26.70
2019-05-23T09:35:32.363Z,27.40
2019-05-23T09:38:00.937Z,26.60
2019-05-23T09:40:29.595Z,26.60
2019-05-23T09:42:58.228Z,27.60
2019-05-23T09:45:26.959Z,27.00
2019-05-23T09:47:55.948Z,27.30
2019-05-23T09:50:26.273Z,30.80
2019-05-23T09:52:54.913Z,30.30
2019-05-23T09:55:23.879Z,30.50
2019-05-23T09:57:52.814Z,29.40
2019-05-23T10:00:23.384Z,29.90
2019-05-23T10:02:52.093Z,31.00
2019-05-23T10:05:40.201Z,33.70
2019-05-23T10:07:51.322Z,31.80
2019-05-23T10:10:20.349Z,30.20
2019-05-23T10:12:49.152Z,30.60
2019-05-23T10:15:19.822Z,33.90
2019-05-23T10:17:48.522Z,36.00
2019-05-23T10:20:17.362Z,39.40
2019-05-23T10:22:45.213Z,40.80
2019-05-23T10:25:14.122Z,40.60
2019-05-23T10:27:41.951Z,43.00
2019-05-23T10:30:12.923Z,46.10
2019-05-23T10:32:41.612Z,45.80
2019-05-23T10:35:10.580Z,43.80
2019-05-23T10:37:40.257Z,45.60
2019-05-23T10:40:09.658Z,45.10
2019-05-23T10:42:38.717Z,47.00
2019-05-23T10:45:08.571Z,44.50
2019-05-23T10:47:37.534Z,45.50
2019-05-23T10:50:09.360Z,45.90
2019-05-23T10:52:37.871Z,47.50
2019-05-23T10:55:07.306Z,45.90
2019-05-23T10:57:36.279Z,47.40
2019-05-23T11:00:07.242Z,46.10
2019-05-23T11:02:36.469Z,46.90
2019-05-23T11:05:13.514Z,46.20
2019-05-23T11:07:41.534Z,47.40
2019-05-23T11:10:11.909Z,47.30
2019-05-23T11:12:41.810Z,48.60
2019-05-23T11:15:11.118Z,48.40
2019-05-23T11:17:40.282Z,48.10
2019-05-23T11:20:08.754Z,47.70
2019-05-23T11:22:37.544Z,47.40
2019-05-23T11:25:08.122Z,48.90
2019-05-23T11:27:37.371Z,49.00
2019-05-23T11:30:06.019Z,47.40
2019-05-23T11:32:34.825Z,47.10
2019-05-23T11:35:03.583Z,45.30
2019-05-23T11:37:32.178Z,46.40
2019-05-23T11:40:00.808Z,49.70
2019-05-23T11:42:29.436Z,48.10
2019-05-23T11:44:58.174Z,45.50
2019-05-23T11:47:30.656Z,46.40
2019-05-23T11:49:57.706Z,46.80
2019-05-23T11:52:27.138Z,46.10
2019-05-23T11:54:55.971Z,46.50
2019-05-23T11:57:24.730Z,47.60
2019-05-23T11:59:54.258Z,46.40
2019-05-23T12:02:30.436Z,47.00
2019-05-23T12:05:01.043Z,46.00
2019-05-23T12:07:30.447Z,46.20
2019-05-23T12:09:59.238Z,47.30
2019-05-23T12:12:28.052Z,47.50
2019-05-23T12:14:56.670Z,46.30
2019-05-23T12:17:26.608Z,45.80
2019-05-23T12:19:55.383Z,46.40
2019-05-23T12:22:25.574Z,46.00
2019-05-23T12:24:54.556Z,46.40
2019-05-23T12:27:23.249Z,44.90
2019-05-23T12:29:51.934Z,46.40
2019-05-23T12:32:20.615Z,47.20
2019-05-23T12:35:08.593Z,46.50
2019-05-23T12:37:20.775Z,46.50
2019-05-23T12:39:49.919Z,45.10
2019-05-23T12:42:18.569Z,45.10
2019-05-23T12:44:47.206Z,45.60
2019-05-23T12:47:17.588Z,45.50
2019-05-23T12:49:50.401Z,45.90
2019-05-23T12:52:19.320Z,45.60
2019-05-23T12:54:47.911Z,44.00
2019-05-23T12:57:16.897Z,44.70
2019-05-23T12:59:46.401Z,46.10
2019-05-23T13:02:17.100Z,45.20
2019-05-23T13:04:45.989Z,45.90
2019-05-23T13:07:15.564Z,46.00
2019-05-23T13:09:44.531Z,45.80
2019-05-23T13:12:16.143Z,45.30
2019-05-23T13:14:42.919Z,46.30
2019-05-23T13:17:11.933Z,45.80
2019-05-23T13:19:41.358Z,45.70
2019-05-23T13:22:11.193Z,45.00
2019-05-23T13:24:51.918Z,43.40
2019-05-23T13:27:10.212Z,43.30
2019-05-23T13:29:38.810Z,44.40
2019-05-23T13:32:07.819Z,43.10
2019-05-23T13:34:36.874Z,42.50
2019-05-23T13:37:07.544Z,41.70
2019-05-23T13:39:36.739Z,41.60
2019-05-23T13:42:04.627Z,41.60
2019-05-23T13:44:36.002Z,41.60
2019-05-23T13:47:03.975Z,42.20
2019-05-23T13:49:33.170Z,41.50
2019-05-23T13:52:02.240Z,41.40
2019-05-23T13:54:35.689Z,39.80
2019-05-23T13:57:02.082Z,39.70
2019-05-23T13:59:29.947Z,38.70
2019-05-23T14:01:58.560Z,38.20
2019-05-23T14:04:27.508Z,38.20
2019-05-23T14:06:56.667Z,37.20
2019-05-23T14:09:25.590Z,38.40
2019-05-23T14:12:19.512Z,38.20
2019-05-23T14:14:25.030Z,38.20
2019-05-23T14:16:55.782Z,38.60
2019-05-23T14:19:24.623Z,36.90
2019-05-23T14:21:53.517Z,37.80
2019-05-23T14:24:22.105Z,36.80
2019-05-23T14:26:55.153Z,39.30
2019-05-23T14:29:24.073Z,37.30
2019-05-23T14:31:54.540Z,35.40
2019-05-23T14:34:23.265Z,37.00
2019-05-23T14:36:53.605Z,35.30
2019-05-23T14:39:26.673Z,35.60
2019-05-23T14:41:59.998Z,36.60
2019-05-23T14:44:28.827Z,37.40
2019-05-23T14:47:02.218Z,39.60
2019-05-23T14:49:34.966Z,38.90
2019-05-23T14:52:17.577Z,37.30
2019-05-23T14:54:47.560Z,35.70
2019-05-23T14:57:16.178Z,36.20
2019-05-23T14:59:44.735Z,37.10
2019-05-23T15:02:15.317Z,37.50
2019-05-23T15:04:44.139Z,37.70
2019-05-23T15:07:12.873Z,38.40
2019-05-23T15:09:41.527Z,39.00
2019-05-23T15:12:10.752Z,39.80
2019-05-23T15:14:39.340Z,41.00
2019-05-23T15:17:08.269Z,40.70
2019-05-23T15:19:44.258Z,43.80
2019-05-23T15:22:07.441Z,46.20
2019-05-23T15:24:37.077Z,48.00
2019-05-23T15:27:05.677Z,49.90
2019-05-23T15:29:34.296Z,51.60
2019-05-23T15:32:03.352Z,53.30
2019-05-23T15:34:34.650Z,54.80
2019-05-23T15:37:01.802Z,57.30
2019-05-23T15:39:30.526Z,59.20
2019-05-23T15:41:59.200Z,61.00
2019-05-23T15:44:30.045Z,61.00
2019-05-23T15:46:58.279Z,63.10
2019-05-23T15:49:27.415Z,64.40
2019-05-23T15:51:57.770Z,67.10
2019-05-23T15:54:37.446Z,66.80
2019-05-23T15:57:07.821Z,67.40
2019-05-23T15:59:38.163Z,66.40
2019-05-23T16:02:08.460Z,68.30
2019-05-23T16:04:37.587Z,69.60
2019-05-23T16:07:07.204Z,69.90
2019-05-23T16:09:36.974Z,71.30
2019-05-23T16:12:07.377Z,73.80
2019-05-23T16:14:36.483Z,73.20
2019-05-23T16:17:06.908Z,74.00
2019-05-23T16:19:35.931Z,74.10
2019-05-23T16:22:05.243Z,76.20
2019-05-23T16:24:33.159Z,78.30
2019-05-23T16:27:01.953Z,78.90
2019-05-23T16:29:31.027Z,78.40
2019-05-23T16:31:59.691Z,80.10
2019-05-23T16:34:28.346Z,80.80
2019-05-23T16:36:57.096Z,82.10
2019-05-23T16:39:26.097Z,83.40
2019-05-23T16:41:54.914Z,85.40
2019-05-23T16:44:23.946Z,87.30
2019-05-23T16:46:52.614Z,88.00
2019-05-23T16:49:21.277Z,89.00
2019-05-23T16:51:50.054Z,85.60
2019-05-23T16:54:20.374Z,88.20
2019-05-23T16:56:56.551Z,89.80
2019-05-23T16:59:26.842Z,87.40
2019-05-23T17:02:05.899Z,88.60
2019-05-23T17:04:41.532Z,90.50
2019-05-23T17:07:28.281Z,91.60
2019-05-23T17:10:08.918Z,92.10
2019-05-23T17:12:36.523Z,90.90
2019-05-23T17:15:11.178Z,91.40
2019-05-23T17:18:01.432Z,92.00
2019-05-23T17:20:37.133Z,93.10
2019-05-23T17:23:13.265Z,93.40
2019-05-23T17:25:43.615Z,93.80
2019-05-23T17:28:16.991Z,93.70
2019-05-23T17:30:50.533Z,94.60
2019-05-23T17:33:19.729Z,93.60
2019-05-23T17:35:48.693Z,94.50
2019-05-23T17:38:17.528Z,94.10
2019-05-23T17:40:46.157Z,94.00
2019-05-23T17:43:14.838Z,95.10
2019-05-23T17:45:43.874Z,95.80
2019-05-23T17:48:12.454Z,96.10
2019-05-23T17:50:41.449Z,98.10
2019-05-23T17:53:10.280Z,98.70
2019-05-23T17:55:39.296Z,98.70
2019-05-23T17:58:08.121Z,99.90
2019-05-23T18:00:38.743Z,99.90
2019-05-23T18:03:08.574Z,99.90
2019-05-23T18:05:37.821Z,99.90
2019-05-23T18:08:08.288Z,99.90
2019-05-23T18:10:44.669Z,99.90
2019-05-23T18:13:08.337Z,99.90
2019-05-23T18:15:37.259Z,99.90
2019-05-23T18:18:07.461Z,99.90
2019-05-23T18:20:37.265Z,99.90
2019-05-23T18:23:06.299Z,99.90
2019-05-23T18:25:36.479Z,99.90
2019-05-23T18:28:05.563Z,99.90
2019-05-23T18:30:35.951Z,99.90
2019-05-23T18:33:07.475Z,99.90
2019-05-23T18:35:36.129Z,99.90
2019-05-23T18:38:05.720Z,99.90
2019-05-23T18:40:34.953Z,99.90
2019-05-23T18:43:04.465Z,99.90
2019-05-23T18:45:34.507Z,99.90
2019-05-23T18:48:03.143Z,99.90
2019-05-23T18:50:32.528Z,99.90
2019-05-23T18:53:00.506Z,99.90
2019-05-23T18:55:29.426Z,99.90
2019-05-23T18:57:58.572Z,99.90
2019-05-23T19:00:47.664Z,99.90
2019-05-23T19:03:16.524Z,99.90
2019-05-23T19:05:45.223Z,99.90
2019-05-23T19:08:13.887Z,99.90
2019-05-23T19:10:43.503Z,99.90
2019-05-23T19:13:12.463Z,99.90
2019-05-23T19:15:41.658Z,99.90
2019-05-23T19:18:10.487Z,99.90
2019-05-23T19:20:39.960Z,99.90
2019-05-23T19:23:09.609Z,99.90
2019-05-23T19:25:38.711Z,99.90
2019-05-23T19:28:09.009Z,99.90
2019-05-23T19:30:37.649Z,99.90
2019-05-23T19:33:08.231Z,99.90
2019-05-23T19:35:37.466Z,99.90
2019-05-23T19:38:06.723Z,99.90
2019-05-23T19:40:36.543Z,99.90
2019-05-23T19:43:06.742Z,99.90
2019-05-23T19:45:35.846Z,99.90
2019-05-23T19:48:04.878Z,99.90
2019-05-23T19:50:34.094Z,99.90
2019-05-23T19:53:02.678Z,99.90
2019-05-23T19:55:32.410Z,99.90
2019-05-23T19:58:01.528Z,99.90
2019-05-23T20:00:31.959Z,99.90
2019-05-23T20:03:03.922Z,99.90
2019-05-23T20:05:39.065Z,99.90
2019-05-23T20:08:08.083Z,99.90
2019-05-23T20:10:37.571Z,99.90
2019-05-23T20:13:06.206Z,99.90
2019-05-23T20:15:35.322Z,99.90
2019-05-23T20:18:04.938Z,99.90
2019-05-23T20:20:35.142Z,99.90
2019-05-23T20:23:03.922Z,99.90
2019-05-23T20:25:33.393Z,99.90
2019-05-23T20:28:01.217Z,99.90
2019-05-23T20:30:45.586Z,99.90
2019-05-23T20:33:15.264Z,99.90
2019-05-23T20:35:44.299Z,99.90
2019-05-23T20:38:13.433Z,99.90
2019-05-23T20:40:42.101Z,99.90
2019-05-23T20:43:10.886Z,99.90
2019-05-23T20:45:39.937Z,99.90
2019-05-23T20:48:09.625Z,99.90
2019-05-23T20:50:38.445Z,99.90
2019-05-23T20:53:07.246Z,99.90
2019-05-23T20:55:36.029Z,99.90
2019-05-23T20:58:05.559Z,99.90
2019-05-23T21:00:36.010Z,99.90
2019-05-23T21:03:06.693Z,99.90
2019-05-23T21:05:35.495Z,99.90
2019-05-23T21:08:04.186Z,99.90
2019-05-23T21:10:47.862Z,99.90
2019-05-23T21:13:17.469Z,99.90
2019-05-23T21:15:47.005Z,99.90
2019-05-23T21:18:16.050Z,99.90
2019-05-23T21:20:44.865Z,99.90
2019-05-23T21:23:13.710Z,99.90
2019-05-23T21:25:44.005Z,99.90
2019-05-23T21:28:12.670Z,99.90
2019-05-23T21:30:41.329Z,99.90
2019-05-23T21:33:10.069Z,99.90
2019-05-23T21:35:38.918Z,99.90
2019-05-23T21:38:07.615Z,99.90
2019-05-23T21:40:41.531Z,99.90
2019-05-23T21:43:10.368Z,99.90
2019-05-23T21:45:39.343Z,99.90
2019-05-23T21:48:08.628Z,99.90
2019-05-23T21:50:37.296Z,99.90
2019-05-23T21:53:06.031Z,99.90
2019-05-23T21:55:42.581Z,99.90
2019-05-23T21:58:12.573Z,99.90
2019-05-23T22:01:06.336Z,99.90
2019-05-23T22:03:52.648Z,99.90
2019-05-23T22:06:24.932Z,99.90
2019-05-23T22:08:54.096Z,99.90
2019-05-23T22:11:22.814Z,99.90
2019-05-23T22:13:51.491Z,99.90
2019-05-23T22:16:20.250Z,99.90
2019-05-23T22:18:48.856Z,99.90
2019-05-23T22:21:17.629Z,99.90
2019-05-23T22:23:46.325Z,99.90
2019-05-23T22:26:15.040Z,99.90
2019-05-23T22:28:43.735Z,99.90
2019-05-23T22:31:12.650Z,99.90
2019-05-23T22:33:42.905Z,99.90
2019-05-23T22:36:13.418Z,99.90
2019-05-23T22:38:42.075Z,99.90
2019-05-23T22:41:10.811Z,99.90
2019-05-23T22:43:39.934Z,99.90
2019-05-23T22:46:09.966Z,99.90
2019-05-23T22:48:38.912Z,99.90
2019-05-23T22:51:07.748Z,99.90
2019-05-23T22:53:36.516Z,99.90
2019-05-23T22:56:05.311Z,99.90
2019-05-23T22:58:33.993Z,99.90
2019-05-23T23:01:02.821Z,99.90
2019-05-23T23:03:31.586Z,99.90
2019-05-23T23:06:00.179Z,99.90
2019-05-23T23:08:29.822Z,99.90
2019-05-23T23:10:58.553Z,99.90
2019-05-23T23:13:38.350Z,99.90
2019-05-23T23:15:57.897Z,99.90
2019-05-23T23:18:26.573Z,99.90
2019-05-23T23:20:55.274Z,99.90
2019-05-23T23:23:23.859Z,99.90
2019-05-23T23:25:52.620Z,99.90
2019-05-23T23:28:21.278Z,99.90
2019-05-23T23:30:51.126Z,99.90
2019-05-23T23:33:19.782Z,99.90
2019-05-23T23:35:48.343Z,99.90
2019-05-23T23:38:16.918Z,99.90
2019-05-23T23:40:45.651Z,99.90
2019-05-23T23:43:14.475Z,99.90
2019-05-23T23:46:00.611Z,99.90
2019-05-23T23:48:47.254Z,99.90
2019-05-23T23:51:33.794Z,99.90
2019-05-23T23:54:20.233Z,99.90
2019-05-23T23:57:06.400Z,99.90
2019-05-23T23:59:34.538Z,99.90
